createdAt,value
2023-05-13T05:02:50.648Z,100407.91
2023-05-13T05:05:18.603Z,100412.34
2023-05-13T05:07:46.701Z,100411.47
2023-05-13T05:10:15.227Z,100417.69
2023-05-13T05:12:47.278Z,100420.41
2023-05-13T05:15:18.054Z,100417.81
2023-05-13T05:17:48.495Z,100418.72
2023-05-13T05:20:15.158Z,100414.31
2023-05-13T05:22:43.122Z,100420.22
2023-05-13T05:25:11.949Z,100419.25
2023-05-13T05:27:39.418Z,100423.41
2023-05-13T05:30:07.440Z,100420.47
2023-05-13T05:32:36.082Z,100425.97
2023-05-13T05:35:04.536Z,100431.69
2023-05-13T05:37:33.278Z,100434.09
2023-05-13T05:40:00.482Z,100434.34
2023-05-13T05:42:28.489Z,100428.72
2023-05-13T05:44:55.049Z,100434.44
2023-05-13T05:47:21.965Z,100430.47
2023-05-13T05:49:49.443Z,100436.88
2023-05-13T05:52:18.542Z,100429.28
2023-05-13T05:54:46.063Z,100425.88
2023-05-13T05:57:14.249Z,100435.69
2023-05-13T05:59:41.330Z,100430.63
2023-05-13T06:02:08.715Z,100432.59
2023-05-13T06:04:36.868Z,100436.19
2023-05-13T06:07:03.533Z,100432.66
2023-05-13T06:09:30.769Z,100438.97
2023-05-13T06:11:57.478Z,100437.13
2023-05-13T06:14:24.433Z,100451.78
2023-05-13T06:16:52.508Z,100442.31
2023-05-13T06:19:22.586Z,100440.31
2023-05-13T06:21:50.110Z,100448.00
2023-05-13T06:24:17.399Z,100451.56
2023-05-13T06:26:44.441Z,100446.00
2023-05-13T06:29:15.151Z,100441.56
2023-05-13T06:31:42.107Z,100442.38
2023-05-13T06:34:10.866Z,100445.31
2023-05-13T06:36:37.486Z,100450.94
2023-05-13T06:39:07.363Z,100456.16
2023-05-13T06:41:35.610Z,100446.63
2023-05-13T06:44:09.068Z,100447.09
2023-05-13T06:46:39.373Z,100453.31
2023-05-13T06:49:06.929Z,100454.75
2023-05-13T06:51:34.836Z,100462.22
2023-05-13T06:54:02.321Z,100461.38
2023-05-13T06:56:30.175Z,100457.56
2023-05-13T06:58:57.482Z,100460.50
2023-05-13T07:01:24.145Z,100472.69
2023-05-13T07:03:51.610Z,100465.13
2023-05-13T07:06:18.422Z,100478.50
2023-05-13T07:08:46.207Z,100458.56
2023-05-13T07:11:14.153Z,100457.09
2023-05-13T07:13:41.482Z,100460.13
2023-05-13T07:16:08.108Z,100462.22
2023-05-13T07:18:35.714Z,100459.81
2023-05-13T07:21:02.489Z,100458.44
2023-05-13T07:23:30.325Z,100455.50
2023-05-13T07:25:58.431Z,100457.56
2023-05-13T07:28:25.861Z,100451.69
2023-05-13T07:30:53.522Z,100451.06
2023-05-13T07:33:20.930Z,100453.38
2023-05-13T07:35:47.505Z,100452.25
2023-05-13T07:38:15.076Z,100454.97
2023-05-13T07:40:41.859Z,100458.28
2023-05-13T07:43:09.833Z,100455.66
2023-05-13T07:45:36.739Z,100451.78
2023-05-13T07:48:04.259Z,100448.81
2023-05-13T07:50:31.429Z,100453.59
2023-05-13T07:52:58.710Z,100460.34
2023-05-13T07:55:25.307Z,100448.63
2023-05-13T07:57:52.473Z,100446.31
2023-05-13T08:00:19.186Z,100456.47
2023-05-13T08:02:46.444Z,100449.66
2023-05-13T08:05:13.456Z,100446.59
2023-05-13T08:07:40.664Z,100441.38
2023-05-13T08:10:07.776Z,100448.25
2023-05-13T08:12:36.332Z,100442.34
2023-05-13T08:15:05.956Z,100457.09
2023-05-13T08:17:33.568Z,100440.50
2023-05-13T08:20:01.201Z,100446.88
2023-05-13T08:22:28.411Z,100452.94
2023-05-13T08:24:55.043Z,100453.41
2023-05-13T08:27:22.130Z,100452.84
2023-05-13T08:29:48.657Z,100458.56
2023-05-13T08:32:15.978Z,100449.63
2023-05-13T08:34:42.937Z,100453.91
2023-05-13T08:37:10.478Z,100454.22
2023-05-13T08:39:37.788Z,100450.31
2023-05-13T08:42:06.345Z,100451.69
2023-05-13T08:44:39.789Z,100448.38
2023-05-13T08:47:16.725Z,100449.81
2023-05-13T08:49:44.097Z,100445.44
2023-05-13T08:52:12.301Z,100449.91
2023-05-13T08:54:40.109Z,100445.31
2023-05-13T08:57:06.750Z,100445.59
2023-05-13T08:59:33.912Z,100451.97
2023-05-13T09:02:03.335Z,100458.06
2023-05-13T09:04:31.885Z,100458.19
2023-05-13T09:06:58.826Z,100453.88
2023-05-13T09:09:26.245Z,100457.31
2023-05-13T09:11:52.977Z,100442.88
2023-05-13T09:14:20.265Z,100449.59
2023-05-13T09:16:47.616Z,100443.56
2023-05-13T09:19:15.000Z,100453.75
2023-05-13T09:21:43.914Z,100442.97
2023-05-13T09:24:19.197Z,100439.56
2023-05-13T09:26:46.387Z,100451.53
2023-05-13T09:29:25.325Z,100442.16
2023-05-13T09:31:56.308Z,100444.69
2023-05-13T09:34:32.520Z,100443.16
2023-05-13T09:37:04.981Z,100444.88
2023-05-13T09:39:41.754Z,100439.75
2023-05-13T09:42:19.404Z,100439.91
2023-05-13T09:44:47.496Z,100441.31
2023-05-13T09:47:14.917Z,100436.75
2023-05-13T09:49:43.923Z,100430.41
2023-05-13T09:52:11.692Z,100431.94
2023-05-13T09:54:39.206Z,100436.59
2023-05-13T09:57:06.786Z,100445.31
2023-05-13T09:59:36.746Z,100436.28
2023-05-13T10:02:07.955Z,100435.09
2023-05-13T10:04:35.371Z,100435.94
2023-05-13T10:07:03.838Z,100434.25
2023-05-13T10:09:38.810Z,100437.16
2023-05-13T10:12:07.819Z,100429.84
2023-05-13T10:14:36.159Z,100438.81
2023-05-13T10:17:02.970Z,100424.53
2023-05-13T10:19:30.349Z,100423.53
2023-05-13T10:21:58.405Z,100418.22
2023-05-13T10:24:27.429Z,100430.88
2023-05-13T10:26:54.588Z,100424.00
2023-05-13T10:29:23.090Z,100419.75
2023-05-13T10:31:51.744Z,100421.44
2023-05-13T10:34:19.202Z,100419.44
2023-05-13T10:37:03.702Z,100412.38
2023-05-13T10:39:47.561Z,100416.81
2023-05-13T10:42:32.090Z,100420.84
2023-05-13T10:44:59.465Z,100405.38
2023-05-13T10:47:27.712Z,100416.47
2023-05-13T10:49:55.063Z,100417.78
2023-05-13T10:52:21.650Z,100415.03
2023-05-13T10:55:04.086Z,100411.47
2023-05-13T10:57:37.293Z,100417.22
2023-05-13T11:00:19.323Z,100420.78
2023-05-13T11:02:46.206Z,100415.06
2023-05-13T11:05:21.339Z,100418.59
2023-05-13T11:07:57.683Z,100414.09
2023-05-13T11:10:30.787Z,100413.75
2023-05-13T11:13:15.819Z,100405.22
2023-05-13T11:15:53.511Z,100411.03
2023-05-13T11:18:28.898Z,100416.31
2023-05-13T11:20:56.655Z,100405.38
2023-05-13T11:23:23.283Z,100403.09
2023-05-13T11:26:12.064Z,100405.66
2023-05-13T11:29:04.408Z,100407.06
2023-05-13T11:31:49.106Z,100402.63
2023-05-13T11:34:18.002Z,100399.91
2023-05-13T11:36:49.606Z,100405.66
2023-05-13T11:39:18.938Z,100400.13
2023-05-13T11:41:47.343Z,100408.38
2023-05-13T11:44:16.463Z,100405.25
2023-05-13T11:46:56.501Z,100399.63
2023-05-13T11:49:46.824Z,100405.97
2023-05-13T11:52:15.530Z,100398.50
2023-05-13T11:54:44.680Z,100394.78
2023-05-13T11:57:17.198Z,100398.34
2023-05-13T11:59:56.759Z,100393.06
2023-05-13T12:02:24.217Z,100388.59
2023-05-13T12:04:52.555Z,100395.28
2023-05-13T12:07:24.051Z,100394.28
2023-05-13T12:09:51.824Z,100391.78
2023-05-13T12:12:20.477Z,100402.44
2023-05-13T12:14:50.024Z,100400.88
2023-05-13T12:17:18.676Z,100404.81
2023-05-13T12:20:08.732Z,100404.16
2023-05-13T12:22:35.805Z,100402.03
2023-05-13T12:25:38.783Z,100399.06
2023-05-13T12:28:11.919Z,100385.84
2023-05-13T12:30:41.491Z,100397.75
2023-05-13T12:33:19.458Z,100384.84
2023-05-13T12:35:48.685Z,100389.75
2023-05-13T12:38:17.660Z,100383.28
2023-05-13T12:40:45.373Z,100381.50
2023-05-13T12:43:13.237Z,100387.53
2023-05-13T12:45:44.902Z,100378.34
2023-05-13T12:48:12.629Z,100383.19
2023-05-13T12:50:39.184Z,100396.69
2023-05-13T12:53:06.643Z,100391.25
2023-05-13T12:55:33.556Z,100400.41
2023-05-13T12:58:03.559Z,100379.19
2023-05-13T13:00:30.819Z,100394.63
2023-05-13T13:02:58.266Z,100379.72
2023-05-13T13:05:25.627Z,100377.78
2023-05-13T13:07:52.583Z,100372.00
2023-05-13T13:10:19.312Z,100377.19
2023-05-13T13:12:46.477Z,100390.69
2023-05-13T13:15:13.111Z,100378.63
2023-05-13T13:17:40.330Z,100380.00
2023-05-13T13:20:07.738Z,100385.19
2023-05-13T13:22:37.340Z,100386.56
2023-05-13T13:25:05.777Z,100381.41
2023-05-13T13:27:34.477Z,100381.19
2023-05-13T13:30:01.077Z,100374.59
2023-05-13T13:32:28.380Z,100381.56
2023-05-13T13:34:55.115Z,100380.44
2023-05-13T13:37:22.358Z,100371.84
2023-05-13T13:39:48.919Z,100371.81
2023-05-13T13:42:16.058Z,100380.00
2023-05-13T13:44:42.622Z,100376.44
2023-05-13T13:47:09.963Z,100372.31
2023-05-13T13:49:36.579Z,100370.72
2023-05-13T13:52:03.948Z,100371.28
2023-05-13T13:54:30.554Z,100365.00
2023-05-13T13:56:57.853Z,100364.81
2023-05-13T13:59:24.479Z,100362.50
2023-05-13T14:01:52.978Z,100366.38
2023-05-13T14:04:22.832Z,100357.81
2023-05-13T14:06:51.674Z,100362.41
2023-05-13T14:09:18.584Z,100360.56
2023-05-13T14:11:45.896Z,100352.66
2023-05-13T14:14:12.724Z,100357.91
2023-05-13T14:16:40.414Z,100360.75
2023-05-13T14:19:07.163Z,100353.38
2023-05-13T14:21:34.409Z,100357.53
2023-05-13T14:24:01.840Z,100365.97
2023-05-13T14:26:29.844Z,100366.91
2023-05-13T14:28:57.357Z,100360.56
2023-05-13T14:31:25.945Z,100360.19
2023-05-13T14:33:53.189Z,100360.69
2023-05-13T14:36:20.744Z,100371.66
2023-05-13T14:38:47.926Z,100370.75
2023-05-13T14:41:19.846Z,100368.38
2023-05-13T14:43:47.678Z,100363.63
2023-05-13T14:46:14.342Z,100363.16
2023-05-13T14:48:41.621Z,100360.38
2023-05-13T14:51:08.522Z,100351.09
2023-05-13T14:53:36.004Z,100361.22
2023-05-13T14:56:02.717Z,100347.06
2023-05-13T14:58:30.001Z,100353.22
2023-05-13T15:00:56.516Z,100343.03
2023-05-13T15:03:24.001Z,100343.53
2023-05-13T15:05:51.671Z,100347.03
2023-05-13T15:08:19.072Z,100350.22
2023-05-13T15:10:46.018Z,100347.75
2023-05-13T15:13:13.217Z,100358.09
2023-05-13T15:15:39.895Z,100342.81
2023-05-13T15:18:07.075Z,100334.69
2023-05-13T15:20:33.900Z,100328.53
2023-05-13T15:23:01.326Z,100332.69
2023-05-13T15:25:27.834Z,100324.97
2023-05-13T15:27:54.836Z,100335.91
2023-05-13T15:30:22.314Z,100334.69
2023-05-13T15:32:49.232Z,100338.38
2023-05-13T15:35:17.504Z,100347.75
2023-05-13T15:37:44.038Z,100340.28
2023-05-13T15:40:11.876Z,100343.34
2023-05-13T15:42:38.428Z,100341.88
2023-05-13T15:45:05.864Z,100337.34
2023-05-13T15:47:32.482Z,100333.63
2023-05-13T15:49:59.748Z,100330.16
2023-05-13T15:52:26.341Z,100318.84
2023-05-13T15:54:53.525Z,100329.84
2023-05-13T15:57:20.164Z,100333.19
2023-05-13T15:59:47.450Z,100328.38
2023-05-13T16:02:14.026Z,100312.50
2023-05-13T16:04:41.357Z,100322.97
2023-05-13T16:07:10.869Z,100325.44
2023-05-13T16:09:39.478Z,100326.53
2023-05-13T16:12:06.710Z,100334.06
2023-05-13T16:14:34.023Z,100327.41
2023-05-13T16:17:00.821Z,100320.75
2023-05-13T16:19:28.276Z,100325.91
2023-05-13T16:21:54.812Z,100326.66
2023-05-13T16:24:22.755Z,100323.34
2023-05-13T16:26:49.362Z,100322.75
2023-05-13T16:29:16.625Z,100329.00
2023-05-13T16:31:43.272Z,100323.47
2023-05-13T16:34:10.604Z,100330.63
2023-05-13T16:36:37.153Z,100322.00
2023-05-13T16:39:04.644Z,100327.41
2023-05-13T16:41:31.337Z,100319.06
2023-05-13T16:43:58.141Z,100321.13
2023-05-13T16:46:24.671Z,100320.50
2023-05-13T16:48:51.936Z,100325.19
2023-05-13T16:51:18.920Z,100319.25
2023-05-13T16:53:46.185Z,100309.44
2023-05-13T16:56:12.828Z,100310.66
2023-05-13T16:58:40.084Z,100312.59
2023-05-13T17:01:06.730Z,100307.34
2023-05-13T17:03:33.967Z,100320.63
2023-05-13T17:06:00.766Z,100325.41
2023-05-13T17:08:27.642Z,100318.25
2023-05-13T17:10:54.185Z,100323.13
2023-05-13T17:13:21.693Z,100322.44
2023-05-13T17:15:48.346Z,100318.22
2023-05-13T17:18:16.171Z,100318.72
2023-05-13T17:20:44.063Z,100322.00
2023-05-13T17:23:14.378Z,100325.81
2023-05-13T17:26:01.462Z,100315.44
2023-05-13T17:28:37.501Z,100315.31
2023-05-13T17:31:20.133Z,100312.97
2023-05-13T17:34:13.524Z,100321.31
2023-05-13T17:36:41.349Z,100315.16
2023-05-13T17:39:45.725Z,100312.94
2023-05-13T17:42:18.485Z,100317.81
2023-05-13T17:44:54.927Z,100318.03
2023-05-13T17:50:47.136Z,100319.22
2023-05-13T17:53:14.259Z,100319.41
2023-05-13T17:56:11.454Z,100310.13
2023-05-13T17:58:38.748Z,100317.72
2023-05-13T18:03:52.525Z,100311.50
2023-05-13T18:06:36.997Z,100313.56
2023-05-13T18:09:07.624Z,100322.88
2023-05-13T18:11:44.020Z,100316.06
2023-05-13T18:14:33.894Z,100315.66
2023-05-13T18:17:05.011Z,100312.44
2023-05-13T18:19:50.540Z,100321.97
2023-05-13T18:22:17.492Z,100317.13
2023-05-13T18:24:44.773Z,100321.34
2023-05-13T18:27:19.104Z,100328.91
2023-05-13T18:30:02.970Z,100326.94
2023-05-13T18:32:29.568Z,100330.00
2023-05-13T18:34:58.734Z,100329.66
2023-05-13T18:37:48.828Z,100335.56
2023-05-13T18:40:31.161Z,100337.06
2023-05-13T18:42:58.126Z,100338.47
2023-05-13T18:45:25.029Z,100337.16
2023-05-13T18:47:52.392Z,100335.09
2023-05-13T18:50:19.186Z,100328.41
2023-05-13T18:52:56.048Z,100328.03
2023-05-13T18:55:23.146Z,100333.09
2023-05-13T18:57:53.069Z,100346.22
2023-05-13T19:00:19.996Z,100332.69
2023-05-13T19:02:50.518Z,100348.47
2023-05-13T19:08:48.057Z,100352.88
2023-05-13T19:11:14.663Z,100359.72
2023-05-13T19:13:47.190Z,100358.50
2023-05-13T19:16:15.207Z,100359.09
2023-05-13T19:18:42.557Z,100365.06
2023-05-13T19:21:09.187Z,100362.09
2023-05-13T19:23:37.775Z,100363.53
2023-05-13T19:26:04.412Z,100365.06
2023-05-13T19:28:32.125Z,100357.53
2023-05-13T19:30:58.804Z,100367.88
2023-05-13T19:33:26.366Z,100369.41
2023-05-13T19:35:52.956Z,100369.97
2023-05-13T19:38:21.025Z,100365.13
2023-05-13T19:40:48.002Z,100367.50
2023-05-13T19:43:15.212Z,100367.97
2023-05-13T19:45:41.884Z,100368.34
2023-05-13T19:48:08.976Z,100375.97
2023-05-13T19:50:35.545Z,100373.06
2023-05-13T19:53:02.725Z,100374.63
2023-05-13T19:55:29.294Z,100376.03
2023-05-13T19:57:56.574Z,100377.41
2023-05-13T20:00:23.751Z,100368.88
2023-05-13T20:02:51.217Z,100373.66
2023-05-13T20:05:17.924Z,100372.34
2023-05-13T20:07:45.462Z,100372.72
2023-05-13T20:10:12.178Z,100376.69
2023-05-13T20:12:39.020Z,100382.56
2023-05-13T20:15:06.632Z,100372.50
2023-05-13T20:17:33.629Z,100373.94
2023-05-13T20:20:00.335Z,100382.63
2023-05-13T20:22:27.264Z,100372.44
2023-05-13T20:24:54.819Z,100378.34
2023-05-13T20:27:21.423Z,100377.00
2023-05-13T20:29:49.370Z,100378.34
